Time;durP1;ratioP1;P1;durP2;ratioP2;P2;SDS_P1;SDS_P2;PMS_P1;PMS_P2;Temp;Humidity;BMP_temperature;BMP_pressure;BME280_temperature;BME280_humidity;BME280_pressure;Samples;Min_cycle;Max_cycle;Signal;HPM_P1;HPM_P2
2022/01/08 00:02:22;;;;;;;5.07;2.00;;;;;;;2.04;86.33;101149.47;5021466;28;20041;-85
2022/01/08 00:04:47;;;;;;;5.43;1.63;;;;;;;2.02;86.31;101148.59;5021824;28;20371;-85
2022/01/08 00:07:13;;;;;;;6.97;1.58;;;;;;;2.01;86.29;101149.44;5019737;28;20258;-86
2022/01/08 00:09:38;;;;;;;7.43;1.55;;;;;;;1.99;86.33;101150.31;5038285;28;20037;-85
2022/01/08 00:12:04;;;;;;;7.28;2.15;;;;;;;1.99;86.42;101156.34;5001944;28;20276;-86
2022/01/08 00:14:30;;;;;;;6.75;2.15;;;;;;;1.96;86.25;101161.50;4979769;28;20042;-85
2022/01/08 00:16:55;;;;;;;5.72;1.40;;;;;;;1.94;86.53;101157.22;5039960;28;20033;-86
2022/01/08 00:19:21;;;;;;;4.47;1.40;;;;;;;1.92;86.29;101157.19;5005838;28;20034;-85
2022/01/08 00:21:46;;;;;;;3.15;1.45;;;;;;;1.90;86.24;101161.50;5022245;28;20337;-85
2022/01/08 00:24:11;;;;;;;11.63;2.13;;;;;;;1.90;86.31;101156.34;5030372;28;20044;-86
2022/01/08 00:26:37;;;;;;;5.05;1.67;;;;;;;1.89;86.31;101158.06;5007338;28;20021;-86
2022/01/08 00:29:03;;;;;;;2.47;1.35;;;;;;;1.90;86.32;101159.78;5021166;28;20025;-85
2022/01/08 00:31:29;;;;;;;4.40;1.55;;;;;;;1.89;86.40;101171.00;4997865;28;20108;-86
2022/01/08 00:33:54;;;;;;;7.97;1.55;;;;;;;1.91;86.59;101165.78;5012745;28;20038;-85
2022/01/08 00:36:20;;;;;;;2.05;1.15;;;;;;;1.93;86.62;101161.53;5020779;28;20233;-86
2022/01/08 00:38:45;;;;;;;4.32;1.30;;;;;;;1.95;86.31;101158.91;5022836;28;20218;-85
2022/01/08 00:41:11;;;;;;;4.85;1.33;;;;;;;1.96;86.61;101155.47;5040047;28;20037;-85
2022/01/08 00:43:36;;;;;;;4.15;1.50;;;;;;;1.99;86.78;101152.91;5022826;28;20025;-85
2022/01/08 00:46:02;;;;;;;8.85;1.88;;;;;;;2.03;86.94;101147.72;4990307;28;20088;-85
2022/01/08 00:48:27;;;;;;;5.85;2.00;;;;;;;2.06;86.74;101150.31;5022606;28;20333;-85
2022/01/08 00:50:53;;;;;;;4.78;1.40;;;;;;;2.08;86.57;101150.31;5005733;28;20040;-85
2022/01/08 00:53:19;;;;;;;6.60;1.67;;;;;;;2.10;86.67;101146.00;5005929;28;20041;-85
2022/01/08 00:55:45;;;;;;;7.13;1.50;;;;;;;2.09;86.75;101146.84;5005847;28;20037;-85
2022/01/08 00:58:10;;;;;;;5.57;1.50;;;;;;;2.10;87.03;101154.59;5022010;28;20049;-85
2022/01/08 01:00:35;;;;;;;5.50;1.08;;;;;;;2.07;86.78;101154.63;4989107;28;20284;-85
2022/01/08 01:03:01;;;;;;;7.63;1.38;;;;;;;2.05;86.65;101158.91;5021744;28;20021;-85
2022/01/08 01:05:27;;;;;;;8.30;1.83;;;;;;;2.02;86.33;101165.81;5005527;28;20079;-86
2022/01/08 01:07:53;;;;;;;5.38;1.48;;;;;;;2.00;85.51;101158.06;5039665;28;20079;-85
2022/01/08 01:10:19;;;;;;;5.75;1.55;;;;;;;1.95;84.61;101154.63;5039793;28;20096;-85
2022/01/08 01:12:44;;;;;;;4.70;1.13;;;;;;;1.96;85.15;101171.84;5021534;28;20087;-85
2022/01/08 01:15:13;;;;;;;5.38;1.40;;;;;;;2.00;85.32;101176.16;5003496;28;20029;-85
2022/01/08 01:17:38;;;;;;;2.77;1.30;;;;;;;2.03;85.35;101149.44;5020764;28;20025;-85
2022/01/08 01:20:05;;;;;;;7.18;1.70;;;;;;;2.08;85.98;101161.50;5003497;28;20029;-85
2022/01/08 01:22:41;;;;;;;2.88;1.23;;;;;;;2.10;86.46;101156.34;5016790;28;20311;-85
2022/01/08 01:25:09;;;;;;;3.03;1.50;;;;;;;2.08;86.40;101166.66;5038034;28;20371;-85
2022/01/08 01:30:14;;;;;;;7.75;1.45;;;;;;;2.07;86.66;101167.56;5005753;28;20041;-85
2022/01/08 01:41:20;;;;;;;2.58;1.15;;;;;;;2.01;86.72;101177.88;5004385;28;20049;-85
2022/01/08 01:49:14;;;;;;;6.72;0.90;;;;;;;1.99;86.75;101179.59;5005939;28;20104;-85
2022/01/08 01:51:39;;;;;;;2.80;1.10;;;;;;;1.99;87.04;101186.50;5021906;28;20345;-85
2022/01/08 01:54:05;;;;;;;4.75;1.60;;;;;;;1.98;86.60;101193.34;5004714;28;20221;-85
2022/01/08 01:56:30;;;;;;;4.75;1.17;;;;;;;1.96;85.76;101201.97;5021147;28;20037;-85
2022/01/08 01:58:55;;;;;;;8.02;1.75;;;;;;;1.95;85.20;101197.66;5004494;28;20029;-85
2022/01/08 02:01:21;;;;;;;8.82;1.40;;;;;;;1.92;85.04;101198.53;5004995;28;20216;-85
2022/01/08 02:03:46;;;;;;;5.53;1.65;;;;;;;1.92;85.08;101203.69;5021805;28;20108;-85
2022/01/08 02:06:12;;;;;;;2.60;1.00;;;;;;;1.91;85.40;101195.09;5038053;28;20099;-85
2022/01/08 02:08:38;;;;;;;7.30;1.65;;;;;;;1.91;85.60;101197.69;5018525;28;20029;-85
2022/01/08 02:11:05;;;;;;;2.30;1.10;;;;;;;1.94;85.35;101198.53;5018842;28;20025;-85
2022/01/08 02:13:32;;;;;;;7.07;1.30;;;;;;;1.94;85.69;101191.63;5020136;28;20051;-85
2022/01/08 02:16:00;;;;;;;3.13;1.20;;;;;;;1.97;85.75;101194.25;5019861;28;20061;-85
2022/01/08 02:18:28;;;;;;;7.53;1.77;;;;;;;2.01;85.64;101198.53;5037331;28;20037;-85
2022/01/08 02:20:54;;;;;;;8.50;1.55;;;;;;;2.01;85.61;101193.38;5036946;28;20037;-85
2022/01/08 02:23:20;;;;;;;7.93;2.03;;;;;;;2.02;85.55;101202.84;4973201;28;20029;-85
2022/01/08 02:25:45;;;;;;;4.63;1.65;;;;;;;2.01;85.13;101187.34;5018257;28;20060;-85
2022/01/08 02:28:11;;;;;;;6.72;1.70;;;;;;;2.02;85.10;101195.09;5011245;28;20033;-85
2022/01/08 02:30:36;;;;;;;8.32;1.45;;;;;;;2.06;85.33;101190.81;5038697;28;20240;-85
2022/01/08 02:33:02;;;;;;;5.45;1.85;;;;;;;2.06;84.92;101188.22;5038829;28;20056;-85
2022/01/08 02:35:27;;;;;;;4.72;1.30;;;;;;;2.07;84.97;101190.81;5021076;28;20073;-85
2022/01/08 02:37:53;;;;;;;4.22;1.05;;;;;;;2.10;85.19;101187.34;5004531;28;20097;-85
2022/01/08 02:40:20;;;;;;;6.95;1.33;;;;;;;2.16;85.94;101186.47;5004162;28;20364;-85
2022/01/08 02:42:54;;;;;;;4.18;1.48;;;;;;;2.22;86.50;101189.94;5008339;28;20052;-85
2022/01/08 02:45:20;;;;;;;6.93;1.50;;;;;;;2.27;86.76;101189.91;5025063;28;20048;-85
2022/01/08 02:47:46;;;;;;;4.38;1.25;;;;;;;2.27;86.45;101190.78;5024720;28;20041;-85
2022/01/08 02:50:11;;;;;;;1.98;1.23;;;;;;;2.28;86.82;101189.06;5008101;28;20248;-85
2022/01/08 02:52:43;;;;;;;3.83;1.23;;;;;;;2.30;87.13;101188.19;5024308;28;20077;-86
2022/01/08 02:55:09;;;;;;;6.63;1.55;;;;;;;2.32;87.19;101184.75;5023976;28;20363;-85
2022/01/08 02:57:35;;;;;;;7.63;1.60;;;;;;;2.30;87.17;101190.78;4992321;28;20196;-85
2022/01/08 03:00:01;;;;;;;6.22;1.52;;;;;;;2.27;87.24;101189.91;4987859;28;20040;-85
2022/01/08 03:02:27;;;;;;;6.80;1.67;;;;;;;2.22;86.86;101189.03;5020440;28;20040;-85
2022/01/08 03:04:54;;;;;;;7.07;1.38;;;;;;;2.20;86.91;101183.03;5007639;28;20232;-85
2022/01/08 03:07:19;;;;;;;7.72;1.70;;;;;;;2.19;86.80;101189.06;5023966;28;20236;-85
2022/01/08 03:09:51;;;;;;;8.52;1.70;;;;;;;2.16;86.47;101178.72;5041882;28;20330;-85
2022/01/08 03:12:16;;;;;;;5.50;1.92;;;;;;;2.10;85.56;101179.59;5008324;28;20349;-85
2022/01/08 03:14:41;;;;;;;8.23;1.95;;;;;;;2.10;85.83;101180.44;5041838;28;20037;-86
2022/01/08 03:17:07;;;;;;;8.07;1.52;;;;;;;2.10;85.77;101175.28;5024395;28;20090;-85
2022/01/08 03:19:34;;;;;;;3.35;1.20;;;;;;;2.12;86.01;101177.88;5024042;28;20332;-85
2022/01/08 03:22:03;;;;;;;7.15;1.33;;;;;;;2.15;86.25;101177.00;5028512;28;20037;-85
2022/01/08 03:24:29;;;;;;;5.68;1.00;;;;;;;2.17;86.43;101181.31;5005026;28;20033;-84
2022/01/08 03:26:54;;;;;;;1.90;1.00;;;;;;;2.20;86.96;101183.03;5044833;28;20029;-85
2022/01/08 03:29:20;;;;;;;3.10;1.13;;;;;;;2.20;86.55;101185.59;5027710;28;20216;-85
2022/01/08 03:31:45;;;;;;;4.30;1.17;;;;;;;2.16;86.01;101181.31;5027814;28;20029;-85
2022/01/08 03:34:11;;;;;;;4.72;0.80;;;;;;;2.13;85.66;101182.19;5005692;28;20084;-84
2022/01/08 03:36:36;;;;;;;5.13;1.02;;;;;;;2.09;86.09;101173.56;5026862;28;20130;-85
2022/01/08 03:39:02;;;;;;;2.65;0.95;;;;;;;2.12;86.32;101177.88;5007579;28;20049;-84
2022/01/08 03:41:27;;;;;;;4.10;1.20;;;;;;;2.12;86.22;101180.44;5025417;28;20288;-84
2022/01/08 03:43:53;;;;;;;5.88;1.30;;;;;;;2.12;86.34;101175.28;5042656;28;20030;-84
2022/01/08 03:46:20;;;;;;;5.93;1.63;;;;;;;2.15;86.47;101177.88;5025594;28;20220;-84
2022/01/08 03:48:57;;;;;;;4.25;1.30;;;;;;;2.15;86.31;101177.00;5009360;28;20091;-84
2022/01/08 03:51:23;;;;;;;2.42;0.93;;;;;;;2.18;86.63;101171.84;5010668;28;20085;-84
2022/01/08 03:53:48;;;;;;;3.28;1.05;;;;;;;2.21;86.57;101171.84;5022197;28;20209;-84
2022/01/08 03:56:13;;;;;;;4.00;1.33;;;;;;;2.24;87.17;101183.03;5041519;28;20095;-85
2022/01/08 03:58:39;;;;;;;7.70;1.75;;;;;;;2.26;87.58;101178.72;4992265;28;20373;-84
2022/01/08 04:01:04;;;;;;;4.15;1.08;;;;;;;2.25;87.57;101173.56;5007442;28;20052;-82
2022/01/08 04:03:30;;;;;;;2.33;1.13;;;;;;;2.24;87.49;101167.53;5043883;28;20037;-83
2022/01/08 04:05:55;;;;;;;4.28;1.27;;;;;;;2.23;87.74;101165.78;5024916;28;20037;-83
2022/01/08 04:08:21;;;;;;;3.45;1.20;;;;;;;2.25;87.61;101174.41;5043266;28;20083;-82
2022/01/08 04:10:46;;;;;;;5.43;1.58;;;;;;;2.23;87.45;101172.69;5024469;28;20067;-83
2022/01/08 04:13:15;;;;;;;3.88;1.13;;;;;;;2.19;87.23;101171.84;5006743;28;20101;-83
2022/01/08 04:15:43;;;;;;;7.68;1.60;;;;;;;2.16;87.46;101174.41;5005404;28;20087;-83
2022/01/08 04:18:09;;;;;;;5.03;1.00;;;;;;;2.14;87.34;101183.03;5006253;28;20041;-82
2022/01/08 04:20:41;;;;;;;6.53;2.55;;;;;;;2.10;87.40;101184.75;5008643;28;20056;-83
2022/01/08 04:23:06;;;;;;;8.10;1.55;;;;;;;2.08;87.18;101191.66;4989252;28;20329;-84
2022/01/08 04:25:32;;;;;;;10.77;1.40;;;;;;;2.09;87.51;101188.19;4986504;28;20025;-83
2022/01/08 04:27:57;;;;;;;5.43;1.35;;;;;;;2.10;87.60;101205.44;5034493;28;20079;-83
2022/01/08 04:30:23;;;;;;;9.75;1.52;;;;;;;2.09;87.61;101204.59;5042554;28;20074;-82
2022/01/08 04:32:48;;;;;;;5.65;1.75;;;;;;;2.08;87.71;101202.84;5025009;28;20032;-83
2022/01/08 04:35:13;;;;;;;6.80;1.60;;;;;;;2.09;87.58;101207.16;4991173;28;20071;-84
2022/01/08 04:37:39;;;;;;;3.55;1.20;;;;;;;2.08;87.12;101208.00;5007943;28;21191;-83
2022/01/08 04:40:05;;;;;;;4.82;1.73;;;;;;;2.09;87.61;101206.28;5041928;28;20049;-83
2022/01/08 04:42:30;;;;;;;4.07;1.92;;;;;;;2.09;87.75;101207.16;5008544;28;20041;-83
2022/01/08 04:44:56;;;;;;;8.68;1.77;;;;;;;2.07;87.56;101218.34;5025066;28;20041;-83
2022/01/08 04:47:21;;;;;;;6.32;1.40;;;;;;;2.04;87.56;101219.22;5008879;28;20090;-84
2022/01/08 04:49:47;;;;;;;8.25;1.65;;;;;;;2.03;87.45;101220.06;5025187;28;20070;-84
2022/01/08 04:52:12;;;;;;;4.72;1.38;;;;;;;2.01;87.44;101214.03;5024185;28;20335;-83
2022/01/08 04:54:37;;;;;;;9.30;2.22;;;;;;;2.01;87.41;101213.19;5042790;28;20084;-83
2022/01/08 04:57:03;;;;;;;7.90;1.42;;;;;;;2.01;87.12;101213.19;5024409;28;20049;-83
2022/01/08 04:59:28;;;;;;;4.35;1.75;;;;;;;2.01;87.58;101216.63;5024830;28;20268;-84
2022/01/08 05:01:54;;;;;;;3.58;1.60;;;;;;;2.01;87.64;101211.44;5024085;28;20041;-83
2022/01/08 05:04:20;;;;;;;5.75;1.60;;;;;;;2.01;87.37;101205.44;5024176;28;20029;-84
2022/01/08 05:06:46;;;;;;;10.85;1.75;;;;;;;2.00;87.53;101202.00;5024711;28;20079;-84
2022/01/08 05:09:11;;;;;;;4.25;1.60;;;;;;;1.99;87.51;101208.00;5024165;28;20029;-83
2022/01/08 05:11:37;;;;;;;4.40;1.60;;;;;;;1.99;87.59;101213.19;5024642;28;20037;-83
2022/01/08 05:14:03;;;;;;;7.75;1.52;;;;;;;1.99;87.61;101207.16;5007973;28;20044;-83
2022/01/08 05:16:29;;;;;;;6.20;1.75;;;;;;;1.99;87.49;101204.56;5024905;28;20099;-83
2022/01/08 05:18:55;;;;;;;10.73;1.67;;;;;;;1.98;87.88;101206.28;5024425;28;20053;-83
2022/01/08 05:23:46;;;;;;;3.17;1.55;;;;;;;1.96;87.73;101210.59;5038309;28;20041;-82
2022/01/08 05:26:12;;;;;;;2.92;1.30;;;;;;;1.94;87.69;101222.63;5019271;28;20034;-84
2022/01/08 05:28:37;;;;;;;3.03;1.40;;;;;;;1.91;87.51;101214.88;4989245;28;20037;-83
2022/01/08 05:31:03;;;;;;;4.88;1.58;;;;;;;1.92;87.76;101220.03;5024253;28;20033;-84
2022/01/08 05:33:28;;;;;;;4.53;1.83;;;;;;;1.94;87.93;101224.38;5041889;28;20037;-83
2022/01/08 05:35:54;;;;;;;3.08;1.55;;;;;;;1.97;88.13;101229.53;5024066;28;20037;-83
2022/01/08 05:38:19;;;;;;;4.15;1.70;;;;;;;2.01;88.49;101228.69;5022243;28;20391;-83
2022/01/08 05:40:45;;;;;;;3.67;1.73;;;;;;;2.03;88.71;101229.53;5032648;28;20093;-84
2022/01/08 05:43:10;;;;;;;6.05;2.10;;;;;;;2.05;88.97;101239.00;5034585;28;20068;-83
2022/01/08 05:45:35;;;;;;;6.47;1.80;;;;;;;2.05;88.93;101239.00;5018853;28;20353;-83
2022/01/08 05:48:01;;;;;;;7.43;1.92;;;;;;;2.07;88.98;101237.31;5026348;28;20040;-84
2022/01/08 05:50:26;;;;;;;4.03;1.90;;;;;;;2.07;88.97;101232.16;5014927;28;20375;-83
2022/01/08 05:52:52;;;;;;;2.65;1.63;;;;;;;2.07;88.84;101228.69;5022457;28;20032;-82
2022/01/08 05:55:17;;;;;;;7.28;1.65;;;;;;;2.05;88.78;101223.50;5019471;28;20034;-84
2022/01/08 05:57:43;;;;;;;3.90;1.65;;;;;;;2.05;88.85;101226.09;5021952;28;20033;-83
2022/01/08 06:00:08;;;;;;;5.55;1.85;;;;;;;2.07;88.92;101218.34;5031378;28;20108;-84
2022/01/08 06:02:35;;;;;;;5.85;1.77;;;;;;;2.07;89.05;101219.22;4991256;28;20036;-84
2022/01/08 06:05:00;;;;;;;4.18;1.40;;;;;;;2.09;89.10;101214.03;5023894;28;20108;-83
2022/01/08 06:07:26;;;;;;;6.75;2.10;;;;;;;2.13;89.39;101213.19;5023292;28;20343;-84
2022/01/08 06:09:51;;;;;;;6.57;1.80;;;;;;;2.16;89.53;101209.75;5024172;28;20030;-84
2022/01/08 06:12:17;;;;;;;3.70;1.80;;;;;;;2.17;89.58;101208.88;5024007;28;20292;-83
2022/01/08 06:14:42;;;;;;;7.88;1.73;;;;;;;2.18;89.59;101203.69;4991424;28;20040;-83
2022/01/08 06:17:08;;;;;;;6.93;1.63;;;;;;;2.18;89.45;101213.19;5008782;28;20048;-84
2022/01/08 06:19:33;;;;;;;6.57;2.03;;;;;;;2.18;89.41;101213.19;5027662;28;20029;-83
2022/01/08 06:21:59;;;;;;;6.68;1.70;;;;;;;2.19;89.56;101192.50;5024167;28;20042;-83
2022/01/08 06:24:26;;;;;;;4.40;1.80;;;;;;;2.20;89.47;101190.78;5020993;28;20045;-83
2022/01/08 06:26:51;;;;;;;4.25;1.33;;;;;;;2.23;89.70;101201.13;5026738;28;20117;-83
2022/01/08 06:29:16;;;;;;;3.83;1.50;;;;;;;2.24;89.64;101187.34;5010003;28;20022;-83
2022/01/08 06:31:42;;;;;;;4.95;1.85;;;;;;;2.24;89.46;101193.38;5044584;28;20332;-83
2022/01/08 06:34:07;;;;;;;7.20;2.00;;;;;;;2.26;89.93;101188.22;5009981;28;20045;-82
2022/01/08 06:36:33;;;;;;;9.13;1.85;;;;;;;2.26;89.82;101188.22;5044395;28;20018;-82
2022/01/08 06:38:58;;;;;;;2.63;1.50;;;;;;;2.27;90.03;101195.97;5009089;28;20067;-83
2022/01/08 06:41:24;;;;;;;6.32;1.52;;;;;;;2.28;89.90;101189.06;5011502;28;20048;-83
2022/01/08 06:43:49;;;;;;;5.00;1.83;;;;;;;2.29;89.85;101189.06;5027753;28;20067;-82
2022/01/08 06:46:15;;;;;;;7.22;1.70;;;;;;;2.29;89.98;101189.06;5027774;28;20047;-82
2022/01/08 06:48:41;;;;;;;7.88;1.92;;;;;;;2.30;90.15;101189.91;5028073;28;20033;-83
2022/01/08 06:51:06;;;;;;;5.75;1.83;;;;;;;2.31;90.21;101183.91;5027261;28;20036;-83
2022/01/08 06:53:32;;;;;;;8.98;2.58;;;;;;;2.31;89.90;101183.91;5027641;28;20033;-82
2022/01/08 06:55:57;;;;;;;6.10;1.85;;;;;;;2.32;90.00;101187.34;5027280;28;20021;-82
2022/01/08 06:58:25;;;;;;;3.70;2.30;;;;;;;2.33;89.99;101186.47;5010746;28;20033;-82
2022/01/08 07:00:51;;;;;;;9.55;2.03;;;;;;;2.32;89.94;101184.75;5038920;28;20092;-82
2022/01/08 07:03:16;;;;;;;5.05;2.05;;;;;;;2.33;90.00;101179.59;5024451;28;20049;-82
2022/01/08 07:05:42;;;;;;;9.50;2.47;;;;;;;2.34;90.10;101173.53;5026321;28;20025;-83
2022/01/08 07:08:08;;;;;;;4.07;2.10;;;;;;;2.36;90.21;101174.38;5009463;28;20041;-83
2022/01/08 07:10:33;;;;;;;3.53;2.28;;;;;;;2.38;90.12;101180.41;5019977;28;20033;-83
2022/01/08 07:12:59;;;;;;;3.00;2.05;;;;;;;2.39;90.36;101171.81;5025194;28;20025;-83
2022/01/08 07:15:25;;;;;;;5.53;2.30;;;;;;;2.40;90.51;101176.13;5029448;28;20033;-83
2022/01/08 07:17:50;;;;;;;2.63;1.90;;;;;;;2.41;90.49;101167.50;5023707;28;20290;-82
2022/01/08 07:20:15;;;;;;;5.45;1.90;;;;;;;2.41;90.65;101164.91;5008069;28;20076;-83
2022/01/08 07:22:41;;;;;;;8.70;2.15;;;;;;;2.43;90.65;101170.94;4982946;28;20044;-83
2022/01/08 07:25:07;;;;;;;5.70;2.13;;;;;;;2.44;90.69;101164.91;5010819;28;20029;-82
2022/01/08 07:27:33;;;;;;;9.65;2.22;;;;;;;2.44;90.43;101169.22;5024427;28;20048;-82
2022/01/08 07:30:01;;;;;;;7.10;1.60;;;;;;;2.46;90.60;101157.16;5024421;28;20068;-83
2022/01/08 07:32:27;;;;;;;6.13;2.00;;;;;;;2.47;90.70;101164.91;5021600;28;20045;-83
2022/01/08 07:34:52;;;;;;;3.90;1.48;;;;;;;2.49;90.62;101168.34;5040843;28;20037;-82
2022/01/08 07:37:18;;;;;;;5.97;2.00;;;;;;;2.48;90.69;101158.88;5004389;28;20276;-82
2022/01/08 07:39:43;;;;;;;6.00;2.15;;;;;;;2.50;90.79;101154.53;4985335;28;20054;-82
2022/01/08 07:42:09;;;;;;;6.68;2.42;;;;;;;2.52;90.94;101151.97;5010648;28;20044;-82
2022/01/08 07:44:34;;;;;;;5.32;2.03;;;;;;;2.55;91.07;101159.72;5007142;28;20045;-82
2022/01/08 07:47:00;;;;;;;7.55;2.10;;;;;;;2.57;91.20;101149.38;5034924;28;20029;-83
2022/01/08 07:49:26;;;;;;;6.07;2.05;;;;;;;2.58;91.27;101143.31;5040255;28;20041;-83
2022/01/08 07:51:51;;;;;;;4.95;1.90;;;;;;;2.59;91.26;101145.06;5040578;28;20363;-82
2022/01/08 07:54:16;;;;;;;3.72;1.52;;;;;;;2.60;91.20;101149.34;5042536;28;20064;-82
2022/01/08 07:56:42;;;;;;;4.65;2.08;;;;;;;2.61;91.33;101151.94;5023040;28;20056;-82
2022/01/08 07:59:07;;;;;;;6.90;1.77;;;;;;;2.63;91.35;101144.19;5015008;28;20048;-82
2022/01/08 08:01:33;;;;;;;6.60;1.80;;;;;;;2.64;91.28;101139.00;5022858;28;20056;-83
2022/01/08 08:03:58;;;;;;;5.22;1.98;;;;;;;2.65;91.39;101134.69;5010049;28;20037;-83
2022/01/08 08:06:24;;;;;;;8.00;2.10;;;;;;;2.66;91.49;101137.28;5039726;28;20041;-82
2022/01/08 08:08:49;;;;;;;9.27;3.00;;;;;;;2.68;91.56;101132.09;5011820;28;20057;-83
2022/01/08 08:11:14;;;;;;;9.50;1.80;;;;;;;2.69;91.47;101131.22;5035883;28;20383;-84
2022/01/08 08:13:40;;;;;;;8.77;2.05;;;;;;;2.70;91.46;101130.38;5006947;28;20044;-83
2022/01/08 08:16:07;;;;;;;4.53;1.70;;;;;;;2.68;91.25;101130.38;5040655;28;20045;-83
2022/01/08 08:18:32;;;;;;;6.40;2.30;;;;;;;2.68;91.15;101116.59;5009874;28;20049;-83
2022/01/08 08:20:57;;;;;;;8.45;1.98;;;;;;;2.69;91.14;101115.69;5006850;28;20045;-82
2022/01/08 08:23:23;;;;;;;8.20;2.03;;;;;;;2.68;91.29;101117.44;5034339;28;20055;-83
2022/01/08 08:25:49;;;;;;;11.07;2.70;;;;;;;2.68;91.29;101107.09;5021212;28;20064;-83
2022/01/08 08:28:14;;;;;;;8.88;2.20;;;;;;;2.72;91.47;101109.69;4992365;28;20108;-82
2022/01/08 08:30:42;;;;;;;9.93;3.47;;;;;;;2.74;91.44;101110.53;5040912;28;20033;-82
2022/01/08 08:33:08;;;;;;;5.57;3.10;;;;;;;2.74;91.56;101106.19;5036333;28;20040;-83
2022/01/08 08:35:33;;;;;;;8.50;3.78;;;;;;;2.75;91.55;101107.94;5006619;28;20291;-82
2022/01/08 08:37:59;;;;;;;9.65;4.00;;;;;;;2.75;91.64;101092.41;5039160;28;20232;-82
2022/01/08 08:40:24;;;;;;;10.68;4.32;;;;;;;2.77;91.53;101095.00;5003585;28;20045;-83
2022/01/08 08:42:50;;;;;;;10.10;4.80;;;;;;;2.77;91.76;101095.84;5020390;28;20021;-82
2022/01/08 08:45:15;;;;;;;7.45;4.30;;;;;;;2.79;91.58;101096.69;5005484;28;20029;-83
2022/01/08 08:47:41;;;;;;;11.00;4.82;;;;;;;2.78;91.66;101092.38;5040525;28;20033;-83
2022/01/08 08:50:07;;;;;;;30.70;6.22;;;;;;;2.80;91.75;101088.09;5022533;28;20025;-82
2022/01/08 08:52:33;;;;;;;25.92;6.03;;;;;;;2.82;91.70;101080.28;5040096;28;20045;-82
2022/01/08 08:54:58;;;;;;;12.57;5.70;;;;;;;2.83;91.60;101079.44;5004659;28;20068;-83
2022/01/08 08:57:24;;;;;;;10.05;6.50;;;;;;;2.85;91.86;101088.06;5008820;28;20029;-82
2022/01/08 08:59:49;;;;;;;8.18;6.18;;;;;;;2.84;91.92;101082.03;5019571;28;20332;-83
2022/01/08 09:02:15;;;;;;;11.95;7.38;;;;;;;2.86;91.93;101063.91;5033265;28;20042;-83
2022/01/08 09:04:41;;;;;;;12.82;7.32;;;;;;;2.87;91.97;101071.69;5002788;28;20030;-83
2022/01/08 09:07:07;;;;;;;12.57;7.07;;;;;;;2.90;92.18;101075.09;5006360;28;20518;-82
2022/01/08 09:09:32;;;;;;;12.10;7.72;;;;;;;2.90;92.06;101077.69;4989225;28;20083;-83
2022/01/08 09:11:58;;;;;;;14.23;7.75;;;;;;;2.90;92.05;101068.19;5005200;28;20276;-82
2022/01/08 09:14:23;;;;;;;13.48;8.57;;;;;;;2.92;92.07;101052.66;5022199;28;20025;-83
2022/01/08 09:16:51;;;;;;;15.07;8.05;;;;;;;2.93;91.91;101044.03;5021831;28;20114;-83
2022/01/08 09:19:16;;;;;;;16.15;8.02;;;;;;;2.94;92.37;101040.59;5017693;28;20044;-83
2022/01/08 09:21:42;;;;;;;14.43;8.27;;;;;;;2.93;92.12;101036.25;5022222;28;20037;-82
2022/01/08 09:24:08;;;;;;;15.85;8.35;;;;;;;2.96;92.25;101031.94;5001971;28;20101;-83
2022/01/08 09:26:33;;;;;;;15.05;8.82;;;;;;;2.98;92.32;101013.81;5029543;28;20037;-83
2022/01/08 09:28:59;;;;;;;12.48;8.43;;;;;;;3.01;92.40;101014.66;5005110;28;20037;-83
2022/01/08 09:31:24;;;;;;;12.52;8.50;;;;;;;3.02;92.38;101010.31;5004074;28;20025;-83
2022/01/08 09:33:50;;;;;;;22.35;10.50;;;;;;;3.05;92.30;101007.72;5038015;28;20048;-83
2022/01/08 09:36:15;;;;;;;14.75;9.27;;;;;;;3.06;92.19;101019.81;5021234;28;20064;-83
2022/01/08 09:38:40;;;;;;;15.15;10.00;;;;;;;3.06;92.27;101010.31;5016744;28;20053;-82
2022/01/08 09:41:06;;;;;;;17.13;9.73;;;;;;;3.09;92.39;101006.84;5041628;28;20049;-83
2022/01/08 09:43:32;;;;;;;13.35;10.15;;;;;;;3.10;92.10;101011.16;5020930;28;20060;-83
2022/01/08 09:45:57;;;;;;;15.00;10.15;;;;;;;3.12;91.85;100998.19;5021258;28;20041;-83
2022/01/08 09:48:23;;;;;;;17.88;10.13;;;;;;;3.16;92.28;100999.88;5039407;28;20394;-83
2022/01/08 09:50:48;;;;;;;16.58;9.63;;;;;;;3.17;92.25;100988.69;5040384;28;20040;-82
2022/01/08 09:53:14;;;;;;;16.90;9.82;;;;;;;3.19;92.49;100981.75;4995305;28;20032;-83
2022/01/08 09:55:39;;;;;;;17.45;9.90;;;;;;;3.21;92.42;100977.44;5000167;28;20295;-83
2022/01/08 09:58:05;;;;;;;18.48;10.52;;;;;;;3.22;92.33;100966.19;5024987;28;20033;-83
2022/01/08 10:00:31;;;;;;;17.25;10.05;;;;;;;3.24;92.35;100959.28;5024470;28;20033;-83
2022/01/08 10:03:17;;;;;;;17.33;9.68;;;;;;;3.24;92.34;100962.72;5024441;28;20045;-83
2022/01/08 10:06:01;;;;;;;16.50;10.30;;;;;;;3.26;92.16;100945.44;5009712;28;20037;-83
2022/01/08 10:08:31;;;;;;;16.20;9.38;;;;;;;3.27;92.15;100938.53;5019816;28;20049;-83
2022/01/08 10:10:57;;;;;;;16.02;9.55;;;;;;;3.29;92.24;100933.34;5005492;28;20037;-83
2022/01/08 10:13:31;;;;;;;18.33;9.35;;;;;;;3.31;92.44;100929.00;5026499;28;20096;-83
2022/01/08 10:18:41;;;;;;;14.52;8.55;;;;;;;3.34;92.35;100903.97;5052705;28;20104;-83
2022/01/08 10:21:17;;;;;;;16.65;8.88;;;;;;;3.38;92.46;100897.00;5029808;28;20088;-83
2022/01/08 10:23:43;;;;;;;17.33;8.30;;;;;;;3.40;92.39;100893.56;5021243;28;20156;-83
2022/01/08 10:26:10;;;;;;;12.85;7.75;;;;;;;3.42;92.39;100890.94;5012194;28;20341;-82
2022/01/08 10:28:46;;;;;;;13.75;7.95;;;;;;;3.42;92.37;100873.69;5017923;28;20333;-83
2022/01/08 10:31:21;;;;;;;14.32;7.70;;;;;;;3.46;92.35;100861.56;5007135;28;20029;-83
2022/01/08 10:34:01;;;;;;;15.55;8.25;;;;;;;3.47;92.29;100858.09;5021129;28;20045;-83
2022/01/08 10:36:30;;;;;;;12.77;8.15;;;;;;;3.50;92.31;100850.28;5040380;28;20040;-83
2022/01/08 10:38:58;;;;;;;13.85;8.35;;;;;;;3.53;92.54;100850.25;5021331;28;20045;-83
2022/01/08 10:41:25;;;;;;;9.63;6.63;;;;;;;3.53;92.45;100839.03;5024148;28;20244;-82
2022/01/08 10:44:20;;;;;;;10.50;6.93;;;;;;;3.57;92.44;100846.75;5007782;28;20300;-83
2022/01/08 10:47:12;;;;;;;15.82;7.00;;;;;;;3.57;92.19;100820.00;5017414;28;20099;-83
2022/01/08 10:49:44;;;;;;;12.57;6.43;;;;;;;3.58;91.88;100816.53;5022151;28;20033;-83
2022/01/08 10:52:15;;;;;;;8.52;4.47;;;;;;;3.59;91.90;100808.75;5040010;28;20088;-82
2022/01/08 10:54:48;;;;;;;15.02;5.80;;;;;;;3.61;91.66;100804.41;5018823;28;20041;-83
2022/01/08 10:57:14;;;;;;;7.15;5.53;;;;;;;3.64;91.68;100795.75;4993618;28;20104;-82
2022/01/08 10:59:40;;;;;;;9.25;5.00;;;;;;;3.68;91.93;100791.38;5007539;28;20319;-83
2022/01/08 11:02:12;;;;;;;8.20;3.92;;;;;;;3.71;91.89;100778.38;4990281;28;20398;-83
2022/01/08 11:04:52;;;;;;;11.52;4.60;;;;;;;3.73;91.76;100764.56;5045309;28;20044;-82
2022/01/08 11:07:27;;;;;;;8.30;3.75;;;;;;;3.75;91.70;100746.41;5008068;28;20104;-82
2022/01/08 11:10:05;;;;;;;8.02;4.30;;;;;;;3.78;91.67;100739.44;5007373;28;20079;-83
2022/01/08 11:12:37;;;;;;;7.05;3.67;;;;;;;3.80;91.53;100742.88;5027542;28;20037;-83
2022/01/08 11:17:42;;;;;;;10.13;3.40;;;;;;;3.83;91.46;100724.66;5009183;28;20033;-83
2022/01/08 11:20:13;;;;;;;4.88;3.13;;;;;;;3.84;91.35;100723.78;5013326;28;20036;-83
2022/01/08 11:22:40;;;;;;;5.63;3.03;;;;;;;3.85;91.17;100707.34;5004268;28;20316;-84
2022/01/08 11:25:16;;;;;;;13.68;3.40;;;;;;;3.84;91.00;100699.63;5001414;28;20030;-83
2022/01/08 11:28:01;;;;;;;5.85;2.85;;;;;;;3.84;90.74;100700.47;5007576;28;20091;-82
2022/01/08 11:30:29;;;;;;;7.90;3.13;;;;;;;3.84;90.82;100703.06;5025633;28;20087;-83
2022/01/08 11:32:57;;;;;;;8.75;3.33;;;;;;;3.85;90.64;100690.97;5039840;28;20045;-82
2022/01/08 11:35:24;;;;;;;3.47;2.55;;;;;;;3.84;90.66;100684.09;5024336;28;20033;-83
2022/01/08 11:37:51;;;;;;;6.15;3.13;;;;;;;3.84;90.59;100676.31;5027411;28;20040;-83
2022/01/08 11:40:20;;;;;;;6.30;3.05;;;;;;;3.87;90.72;100667.63;5021234;28;20049;-83
2022/01/08 11:42:46;;;;;;;3.30;2.95;;;;;;;3.87;90.87;100652.94;5009344;28;20104;-82
2022/01/08 11:45:16;;;;;;;6.78;3.00;;;;;;;3.89;91.01;100639.97;5004693;28;20042;-83
2022/01/08 11:47:46;;;;;;;5.60;3.35;;;;;;;3.91;91.06;100639.06;5021487;28;20434;-82
2022/01/08 11:50:12;;;;;;;7.90;3.40;;;;;;;3.93;91.28;100626.06;5018989;28;20277;-83
2022/01/08 11:52:38;;;;;;;5.97;2.90;;;;;;;3.93;91.31;100607.94;4998676;28;20104;-83
2022/01/08 11:55:03;;;;;;;4.53;2.90;;;;;;;3.94;91.36;100605.31;5029487;28;20037;-83